27 juni 2022

Tijd Code Weer Temp. Zicht Plafond Wind METAR/SPECI
4:25 a.m.
V
61 °F 6¼ mi+ 9.300 ft 130° 130° 1 kt METAR EHLW 270225Z AUTO 13001KT 9999 OVC093 16/14 Q1015 BLU
3:55 a.m.
V
61 °F 6¼ mi+ 8.400 ft Var Var 2 kt METAR EHLW 270155Z AUTO VRB02KT 9999 FEW079 OVC084 16/14 Q1015 BLU
3:25 a.m.
V
61 °F 6¼ mi+ 7.500 ft 110° 110° 3 kt METAR EHLW 270125Z AUTO 11003KT 070V140 9999 SCT068 BKN075 OVC083 16/14 Q1015 BLU
2:55 a.m.
V
59 °F 6¼ mi+ 7.100 ft 340° 340° 1 kt METAR EHLW 270055Z AUTO 34001KT 9999 SCT066 OVC071 15/14 Q1015 BLU
2:25 a.m.
V
59 °F 6¼ mi+ 8.200 ft 070° 070° 2 kt METAR EHLW 270025Z AUTO 07002KT 9999 SCT069 OVC082 15/14 Q1015 BLU
1:55 a.m.
V
59 °F 6¼ mi+ 10.000 ft 360° 360° 1 kt METAR EHLW 262355Z AUTO 36001KT 9999 OVC100 15/14 Q1015 BLU
1:25 a.m.
V
59 °F 6¼ mi+ 7.100 ft 020° 020° 1 kt METAR EHLW 262325Z AUTO 02001KT 9999 OVC071 15/14 Q1015 BLU
12:55 a.m.
V
61 °F 6¼ mi+ 11.000 ft Var Var 1 kt METAR EHLW 262255Z AUTO VRB01KT 9999 SCT072 SCT085 OVC110 16/14 Q1016 BLU
12:25 a.m.
V
61 °F 6¼ mi+ 11.000 ft Var Var 2 kt METAR EHLW 262225Z AUTO VRB02KT 9999 OVC110 16/14 Q1016 BLU

26 juni 2022

Tijd Code Weer Temp. Zicht Plafond Wind METAR/SPECI
11:55 p.m.
V
63 °F 6¼ mi+ 12.000 ft 110° 110° 4 kt METAR EHLW 262155Z AUTO 11004KT 040V150 9999 OVC120 17/14 Q1016 BLU
11:25 p.m.
V
63 °F 6¼ mi+ 11.000 ft 100° 100° 3 kt METAR EHLW 262125Z AUTO 10003KT 060V140 9999 FEW073 OVC110 17/14 Q1016 BLU
10:55 p.m.
V
63 °F 6¼ mi+ 12.000 ft 100° 100° 2 kt METAR EHLW 262055Z AUTO 10002KT 9999 OVC120 17/14 Q1016 BLU
10:25 p.m.
V
63 °F 6¼ mi+ 10.000 ft 120° 120° 2 kt METAR EHLW 262025Z AUTO 12002KT 9999 OVC100 17/14 Q1016 BLU
9:55 p.m.
V
64 °F 6¼ mi+ 14.000 ft 230° 230° 2 kt METAR EHLW 261955Z AUTO 23002KT 9999 OVC140 18/14 Q1015 BLU
9:25 p.m.
V
66 °F 6¼ mi+ 16.000 ft Var Var 2 kt METAR EHLW 261925Z AUTO VRB02KT 9999 OVC160 19/14 Q1015 BLU
8:55 p.m.
V
66 °F 6¼ mi+ 16.000 ft 210° 210° 2 kt METAR EHLW 261855Z AUTO 21002KT 9999 OVC160 19/14 Q1015 BLU
8:25 p.m.
V
66 °F 6¼ mi+ 18.000 ft 190° 190° 4 kt METAR EHLW 261825Z AUTO 19004KT 160V220 9999 OVC180 19/14 Q1015 BLU
7:55 p.m.
V
68 °F 6¼ mi+ 11.000 ft 190° 190° 4 kt METAR EHLW 261755Z AUTO 19004KT 9999 BKN110 OVC190 20/13 Q1015 BLU
7:25 p.m.
V
68 °F 6¼ mi+ 17.000 ft 190° 190° 6 kt METAR EHLW 261725Z AUTO 19006KT 150V230 9999 OVC170 20/13 Q1015 BLU
6:55 p.m.
V
68 °F 6¼ mi+ 17.000 ft 190° 190° 6 kt METAR EHLW 261655Z AUTO 19006KT 150V220 9999 OVC170 20/13 Q1015 BLU
6:25 p.m.
V
68 °F 6¼ mi+ 16.000 ft 190° 190° 7 kt METAR EHLW 261625Z AUTO 19007KT 150V230 9999 OVC160 20/13 Q1015 BLU
5:55 p.m.
V
68 °F 6¼ mi+ 11.000 ft 180° 180° 8 kt METAR EHLW 261555Z AUTO 18008KT 130V240 9999 OVC110 20/12 Q1016 BLU
5:25 p.m.
V
68 °F 6¼ mi+ 10.000 ft 180° 180° 8 kt METAR EHLW 261525Z AUTO 18008KT 140V230 9999 SCT095 BKN100 OVC170 20/12 Q1015 BLU
4:55 p.m.
V
70 °F 6¼ mi+ 5.100 ft 190° 190° 7 kt METAR EHLW 261455Z AUTO 19007KT 130V250 9999 FEW035 SCT042 BKN051 21/12 Q1015 BLU
4:25 p.m.
V
70 °F 6¼ mi+ 10.000 ft 180° 180° 8 kt METAR EHLW 261425Z AUTO 18008KT 140V230 9999 OVC100 21/11 Q1015 BLU
3:55 p.m.
V
70 °F 6¼ mi+ 12.000 ft 180° 180° 10 kt METAR EHLW 261355Z AUTO 18010KT 140V240 9999 OVC120 21/10 Q1016 BLU
3:25 p.m.
V
70 °F 6¼ mi+ 16.000 ft 200° 200° 9 kt METAR EHLW 261325Z AUTO 20009KT 130V240 9999 FEW049 SCT100 OVC160 21/11 Q1016 BLU
2:55 p.m.
V
70 °F 6¼ mi+ 3.600 ft 190° 190° 8 kt METAR EHLW 261255Z AUTO 19008KT 120V260 9999 SCT032 BKN036 BKN044 21/13 Q1015 BLU
2:25 p.m.
M
68 °F 6¼ mi+ 2.600 ft 190° 190° 6 kt METAR EHLW 261225Z AUTO 19006KT 170V260 9999 BKN026 BKN033 OVC190 20/13 Q1015 BLU
1:59 p.m.
V
68 °F 6¼ mi+ 12.000 ft 210° 210° 7 kt METAR EHLW 261159Z AUTO 21007KT 170V260 9999 FEW029 OVC120 20/13 Q1015 BLU
1:55 p.m.
V
68 °F 6¼ mi+ 13.000 ft 220° 220° 7 kt METAR EHLW 261155Z AUTO 22007KT 180V260 9999 SCT024 OVC130 20/14 Q1015 WHT
1:25 p.m.
V
68 °F 6¼ mi+ 14.000 ft 210° 210° 7 kt METAR EHLW 261125Z AUTO 21007KT 180V260 9999 FEW025 SCT029 OVC140 20/14 Q1015 BLU
12:55 p.m.
V
68 °F 6¼ mi+ 15.000 ft 240° 240° 7 kt METAR EHLW 261055Z AUTO 24007KT 170V290 9999 SCT025 SCT029 OVC150 20/14 Q1015 BLU
12:44 p.m.
V
68 °F 6¼ mi+ 13.000 ft 250° 250° 6 kt METAR EHLW 261044Z AUTO 25006KT 180V290 9999 FEW024 OVC130 20/12 Q1015 BLU
12:34 p.m.
V
68 °F 6¼ mi+ 14.000 ft 250° 250° 8 kt METAR EHLW 261034Z AUTO 25008KT 170V290 9999 SCT023 SCT028 OVC140 20/14 Q1015 WHT
12:25 p.m.
V
68 °F 6¼ mi+ 15.000 ft 240° 240° 6 kt METAR EHLW 261025Z AUTO 24006KT 170V290 9999 FEW023 OVC150 20/13 Q1015 BLU
12:15 p.m.
V
68 °F 6¼ mi+ 14.000 ft 240° 240° 8 kt METAR EHLW 261015Z AUTO 24008KT 210V280 9999 FEW023 OVC140 20/14 Q1015 BLU
11:55 a.m.
V
68 °F 6¼ mi+ 3.300 ft 240° 240° 8 kt METAR EHLW 260955Z AUTO 24008KT 200V300 9999 SCT022 BKN033 OVC140 20/14 Q1015 WHT
11:41 a.m.
M
68 °F 6¼ mi+ 2.400 ft 250° 250° 9 kt METAR EHLW 260941Z AUTO 25009KT 200V290 9999 BKN024 BKN041 BKN140 20/14 Q1015 WHT
11:25 a.m.
V
68 °F 6¼ mi+ 3.100 ft 250° 250° 8 kt METAR EHLW 260925Z AUTO 25008KT 210V300 9999 SCT023 BKN031 BKN037 20/14 Q1015 WHT
11:02 a.m.
V
68 °F 6¼ mi+ 26.000 ft 240° 240° 9 kt METAR EHLW 260902Z AUTO 24009KT 200V280 9999 SCT024 SCT030 OVC260 20/14 Q1014 WHT
10:55 a.m.
V
66 °F 6¼ mi+ 23.000 ft 230° 230° 9 kt METAR EHLW 260855Z AUTO 23009KT 180V280 9999 FEW022 OVC230 19/14 Q1014 BLU
10:25 a.m.
V
66 °F 6¼ mi+ 22.000 ft 230° 230° 9 kt METAR EHLW 260825Z AUTO 23009KT 190V260 9999 SCT021 OVC220 19/15 Q1014 WHT
10:16 a.m.
V
66 °F 6¼ mi+ 25.000 ft 240° 240° 9 kt METAR EHLW 260816Z AUTO 24009KT 160V260 9999 FEW023 SCT034 BKN250 19/14 Q1014 BLU
10:07 a.m.
V
66 °F 6¼ mi+ 30.000 ft 220° 220° 8 kt METAR EHLW 260807Z AUTO 22008KT 170V270 9999 SCT023 SCT036 BKN300 19/14 Q1014 WHT
10:00 a.m.
V
66 °F 6¼ mi+ 31.000 ft 230° 230° 9 kt METAR EHLW 260800Z AUTO 23009KT 190V270 9999 FEW021 SCT025 BKN310 19/14 Q1014 BLU
9:55 a.m.
V
66 °F 6¼ mi+ 30.000 ft 230° 230° 10 kt METAR EHLW 260755Z AUTO 23010KT 170V240 9999 FEW019 SCT034 BKN300 19/14 Q1014 BLU
9:32 a.m.
V
64 °F 6¼ mi+ 28.000 ft 230° 230° 8 kt METAR EHLW 260732Z AUTO 23008KT 200V260 9999 FEW021 BKN280 18/14 Q1013 BLU
9:25 a.m.
M
64 °F 6¼ mi+ 2.100 ft 240° 240° 8 kt METAR EHLW 260725Z AUTO 24008KT 190V280 9999 SCT015 BKN021 BKN025 18/14 Q1013 WHT
9:16 a.m.
V
64 °F 6¼ mi+ 3.100 ft 240° 240° 6 kt METAR EHLW 260716Z AUTO 24006KT 190V280 9999 SCT015 SCT026 BKN031 18/15 Q1013 WHT
9:03 a.m.
V
64 °F 6¼ mi+ - 240° 240° 7 kt METAR EHLW 260703Z AUTO 24007KT 200V270 9999 FEW012 SCT035 18/15 Q1013 BLU
8:55 a.m.
M
64 °F 6¼ mi+ 1.600 ft 240° 240° 5 kt METAR EHLW 260655Z AUTO 24005KT 200V320 9999 SCT012 SCT014 BKN016 18/15 Q1013 GRN
8:43 a.m.
V
64 °F 6¼ mi+ 26.000 ft 260° 260° 5 kt METAR EHLW 260643Z AUTO 26005KT 200V300 9999 SCT016 BKN260 18/15 Q1013 WHT
8:25 a.m.
M
63 °F 6¼ mi+ 2.900 ft 260° 260° 6 kt METAR EHLW 260625Z AUTO 26006KT 9999 FEW015 SCT025 BKN029 17/15 Q1013 BLU
8:10 a.m.
M
63 °F 6¼ mi+ 1.600 ft 260° 260° 7 kt METAR EHLW 260610Z AUTO 26007KT 9999 FEW010 BKN016 OVC021 17/16 Q1013 WHT
8:03 a.m.
M
63 °F 6¼ mi+ 1.600 ft 270° 270° 8 kt METAR EHLW 260603Z AUTO 27008KT 230V290 9999 FEW011 SCT014 OVC016 17/16 Q1012 GRN
7:55 a.m.
M
63 °F 5⅝ mi 1.400 ft 260° 260° 7 kt METAR EHLW 260555Z AUTO 26007KT 220V280 9000 BR BKN014 OVC017 17/16 Q1012 GRN
7:37 a.m.
M
63 °F 5⅝ mi 1.400 ft 250° 250° 5 kt METAR EHLW 260537Z AUTO 25005KT 220V290 9000 BR BKN014 OVC016 17/16 Q1012 GRN
7:36 a.m.
M
63 °F 5⅝ mi 1.600 ft 250° 250° 6 kt METAR EHLW 260536Z AUTO 25006KT 230V290 9000 BR SCT014 BKN016 OVC028 17/16 Q1012 GRN
7:29 a.m.
M
63 °F 5⅝ mi 2.800 ft 260° 260° 6 kt METAR EHLW 260529Z AUTO 26006KT 230V290 9000 BR SCT016 OVC028 17/16 Q1012 WHT
7:25 a.m.
V
63 °F 5⅝ mi 3.000 ft 250° 250° 6 kt METAR EHLW 260525Z AUTO 25006KT 9000 BR OVC030 17/16 Q1012 BLU
6:55 a.m.
V
63 °F 5⅝ mi 5.900 ft 260° 260° 6 kt METAR EHLW 260455Z AUTO 26006KT 220V280 9000 BR BKN059 BKN064 OVC087 17/16 Q1012 BLU
6:25 a.m.
V
63 °F 6¼ mi+ 6.200 ft 240° 240° 5 kt METAR EHLW 260425Z AUTO 24005KT 210V270 9999 FEW055 BKN062 BKN068 17/16 Q1011 BLU
6:04 a.m.
V
61 °F 6¼ mi+ 4.700 ft 210° 210° 5 kt METAR EHLW 260404Z AUTO 21005KT 180V250 9999 -RA FEW012 FEW015CB BKN047 BKN052 16/16 Q1011 BLU
5:55 a.m.
V
61 °F 6¼ mi+ 8.100 ft 220° 220° 4 kt METAR EHLW 260355Z AUTO 22004KT 9999 -SHRA FEW012 FEW015CB SCT050 OVC081 16/16 Q1011 RERA REDZ BLU
5:42 a.m.
V
61 °F 6¼ mi+ 4.600 ft 200° 200° 5 kt METAR EHLW 260342Z AUTO 20005KT 150V240 9999 FEW013 FEW015CB BKN046 BKN050 16/16 Q1011 BLU
5:33 a.m.
V
61 °F 6¼ mi+ 5.200 ft 220° 220° 5 kt METAR EHLW 260333Z AUTO 22005KT 170V230 9999 SHRA FEW014 FEW015CB SCT047 BKN052 16/15 Q1011 BLU
5:25 a.m.
M
61 °F 4⅜ mi 5.300 ft 210° 210° 5 kt METAR EHLW 260325Z AUTO 21005KT 7000 SHRA FEW015CB SCT048 BKN053 16/15 Q1011 WHT
5:16 a.m.
M
61 °F 3⅛ mi 4.600 ft 210° 210° 6 kt METAR EHLW 260316Z AUTO 21006KT 5000 +SHRA SCT015CB SCT041 BKN046 16/15 Q1011 WHT
5:12 a.m.
I
61 °F 2 mi 4.100 ft 210° 210° 8 kt METAR EHLW 260312Z AUTO 21008KT 180V240 3300 RA SCT015CB SCT034 BKN041 OVC047 16/15 Q1011 YLO
4:55 a.m.
M
61 °F 3⅛ mi 4.200 ft 210° 210° 8 kt METAR EHLW 260255Z AUTO 21008KT 170V230 5000 SHRA FEW008 SCT015CB OVC042 16/15 Q1011 REDZ WHT
4:41 a.m.
M
61 °F 6¼ mi+ 2.400 ft 200° 200° 4 kt METAR EHLW 260241Z AUTO 20004KT 160V230 9999 +DZRA FEW015CB SCT018 BKN024 OVC027 16/15 Q1011 WHT
4:25 a.m.
V
61 °F 6¼ mi+ 9.400 ft 190° 190° 3 kt METAR EHLW 260225Z AUTO 19003KT 150V210 9999 -RADZ FEW015CB BKN094 OVC100 16/15 Q1011 BLU
4:21 a.m.
V
61 °F 6¼ mi+ 10.000 ft 190° 190° 3 kt METAR EHLW 260221Z AUTO 19003KT 150V210 9999 DZRA FEW015CB SCT097 OVC100 16/15 Q1011 BLU
4:05 a.m.
V
61 °F 6¼ mi+ 4.800 ft 210° 210° 2 kt METAR EHLW 260205Z AUTO 21002KT 9999 -RADZ FEW015CB OVC048 16/15 Q1011 BLU
3:55 a.m.
V
61 °F 6¼ mi+ 4.900 ft 170° 170° 2 kt METAR EHLW 260155Z AUTO 17002KT 9999 -DZRA BKN049 BKN059 OVC069 16/16 Q1011 BLU
3:25 a.m.
V
61 °F 6¼ mi+ 5.700 ft 110° 110° 3 kt METAR EHLW 260125Z AUTO 11003KT 080V150 9999 FEW015CB BKN057 OVC063 16/15 Q1011 REDZ BLU
3:18 a.m.
V
61 °F 6¼ mi+ 5.600 ft Var Var 2 kt METAR EHLW 260118Z AUTO VRB02KT 9999 FEW015CB BKN056 OVC062 16/15 Q1011 BLU
3:10 a.m.
V
61 °F 6¼ mi+ 5.600 ft 140° 140° 3 kt METAR EHLW 260110Z AUTO 14003KT 130V210 9999 -SHRA FEW015CB BKN056 BKN063 16/15 Q1011 BLU
3:03 a.m.
M
61 °F 3¾ mi 5.800 ft 130° 130° 3 kt METAR EHLW 260103Z AUTO 13003KT 080V190 6000 -RADZ FEW015CB BKN058 OVC066 16/16 Q1011 WHT
3:00 a.m.
V
61 °F 5⅝ mi 6.900 ft 110° 110° 4 kt METAR EHLW 260100Z AUTO 11004KT 080V160 9000 DZRA FEW015CB SCT058 OVC069 16/16 Q1012 BLU
2:55 a.m.
V
61 °F 6¼ mi+ 7.000 ft Var Var 2 kt METAR EHLW 260055Z AUTO VRB02KT 9999 -RA FEW015CB BKN070 BKN079 16/16 Q1012 RETSRA BLU
2:38 a.m.
V
61 °F 6¼ mi+ 6.400 ft Var Var 2 kt METAR EHLW 260038Z AUTO VRB02KT 9999 TSRA SCT015CB SCT043 BKN064 16/16 Q1011 WHT
2:29 a.m.
M
61 °F 3¾ mi 3.300 ft 290° 290° 7 kt METAR EHLW 260029Z AUTO 29007KT 230V350 6000 +TSRA FEW006 SCT010 FEW015CB BKN033 16/16 Q1012 GRN
2:25 a.m.
I
61 °F 1⅝ mi 600 ft 270° 270° 11 - 21 kt METAR EHLW 260025Z AUTO 27011G21KT 220V300 2700 +TSRA SCT005 BKN006 BKN010 FEW015CB 16/15 Q1012 YLO
2:18 a.m.
V
61 °F 6¼ mi+ 5.100 ft Var Var 9 - 21 kt METAR EHLW 260018Z AUTO VRB09G21KT 9999 FEW005 SCT008 FEW015CB BKN051 16/15 Q1011 GRN
1:55 a.m.
V
61 °F 6¼ mi+ 7.100 ft 030° 030° 4 kt METAR EHLW 252355Z AUTO 03004KT 340V040 9999 FEW015CB SCT066 BKN071 16/15 Q1011 BLU
1:25 a.m.
V
61 °F 6¼ mi+ 7.600 ft 350° 350° 4 kt METAR EHLW 252325Z AUTO 35004KT 310V020 9999 FEW015CB SCT066 BKN076 16/15 Q1011 BLU
12:55 a.m.
V
59 °F 6¼ mi+ 10.000 ft 360° 360° 5 kt METAR EHLW 252255Z AUTO 36005KT 9999 FEW059 SCT073 BKN100 15/15 Q1011 BLU
12:33 a.m.
I
59 °F 6¼ mi+ 800 ft 330° 330° 6 kt METAR EHLW 252233Z AUTO 33006KT 9999 BKN008 BKN053 BKN059 15/15 Q1011 GRN
12:25 a.m.
V
61 °F 6¼ mi+ 7.200 ft 330° 330° 4 kt METAR EHLW 252225Z AUTO 33004KT 300V010 9999 -RA FEW008 SCT066 BKN072 16/15 Q1011 BLU
12:14 a.m.
I
61 °F 6¼ mi+ 800 ft 310° 310° 4 kt METAR EHLW 252214Z AUTO 31004KT 9999 BKN008 OVC065 16/15 Q1011 GRN

25 juni 2022

Tijd Code Weer Temp. Zicht Plafond Wind METAR/SPECI
11:55 p.m.
V
61 °F 6¼ mi+ 9.100 ft 340° 340° 5 kt METAR EHLW 252155Z AUTO 34005KT 320V030 9999 FEW010 SCT085 BKN091 16/15 Q1011 BLU
11:25 p.m.
I
61 °F 6¼ mi+ 900 ft 300° 300° 4 kt METAR EHLW 252125Z AUTO 30004KT 240V320 9999 SCT008 BKN009 BKN011 FEW015CB 16/15 Q1012 GRN
11:07 p.m.
M
61 °F 6¼ mi+ 1.000 ft Var Var 4 kt METAR EHLW 252107Z AUTO VRB04KT 9999 BKN010 FEW015CB OVC022 16/14 Q1012 GRN
11:06 p.m.
M
61 °F 6¼ mi+ 2.000 ft Var Var 3 kt METAR EHLW 252106Z AUTO VRB03KT 9999 -RA SCT010 FEW015CB BKN020 BKN030 16/14 Q1012 GRN
10:59 p.m.
V
61 °F 6¼ mi+ 3.100 ft 030° 030° 4 kt METAR EHLW 252059Z AUTO 03004KT 360V080 9999 -SHRA FEW015CB SCT019 BKN031 16/14 Q1012 WHT
10:55 p.m.
V
61 °F 5⅝ mi 4.000 ft 050° 050° 4 kt METAR EHLW 252055Z AUTO 05004KT 360V090 9000 SHRA FEW015CB SCT032 BKN040 16/14 Q1012 BLU
10:43 p.m.
V
63 °F 6¼ mi+ 4.500 ft Var Var 4 kt METAR EHLW 252043Z AUTO VRB04KT 9999 -SHRA FEW015CB SCT040 BKN045 17/14 Q1012 BLU
10:35 p.m.
M
63 °F 6¼ mi+ 2.100 ft Var Var 3 kt METAR EHLW 252035Z AUTO VRB03KT 9999 RA FEW015CB BKN021 BKN040 OVC047 17/14 Q1012 WHT
10:25 p.m.
V
63 °F 6¼ mi+ 3.900 ft Var Var 3 kt METAR EHLW 252025Z AUTO VRB03KT 9999 FEW015CB SCT020 OVC039 17/14 Q1012 WHT
9:55 p.m.
V
63 °F 6¼ mi+ 8.000 ft 050° 050° 9 kt METAR EHLW 251955Z AUTO 05009KT 010V090 9999 FEW015CB BKN080 BKN087 17/14 Q1011 BLU
9:25 p.m.
V
63 °F 6¼ mi+ 8.500 ft 060° 060° 9 kt METAR EHLW 251925Z AUTO 06009KT 360V100 9999 BKN085 OVC090 17/14 Q1011 BLU
8:55 p.m.
V
63 °F 6¼ mi+ 7.900 ft 040° 040° 9 kt METAR EHLW 251855Z AUTO 04009KT 360V080 9999 BKN079 BKN085 OVC094 17/14 Q1011 BLU
8:25 p.m.
V
64 °F 6¼ mi+ 8.900 ft 040° 040° 8 kt METAR EHLW 251825Z AUTO 04008KT 010V070 9999 OVC089 18/15 Q1011 BLU
7:55 p.m.
V
64 °F 6¼ mi+ 8.700 ft 040° 040° 10 kt METAR EHLW 251755Z AUTO 04010KT 350V070 9999 FEW081 BKN087 BKN094 18/15 Q1011 BLU
7:25 p.m.
V
66 °F 6¼ mi+ 19.000 ft 030° 030° 8 kt METAR EHLW 251725Z AUTO 03008KT 350V070 9999 SCT097 BKN190 OVC240 19/15 Q1011 BLU
7:04 p.m.
V
68 °F 6¼ mi+ 21.000 ft 030° 030° 8 kt METAR EHLW 251704Z AUTO 03008KT 360V070 9999 FEW020 SCT100 OVC210 20/15 Q1011 BLU
6:59 p.m.
V
66 °F 6¼ mi+ 10.000 ft 020° 020° 6 kt METAR EHLW 251659Z AUTO 02006KT 320V090 9999 FEW020 SCT024 BKN100 19/15 Q1011 WHT
6:55 p.m.
V
68 °F 6¼ mi+ 9.900 ft 010° 010° 5 kt METAR EHLW 251655Z AUTO 01005KT 320V090 9999 BKN099 BKN210 OVC320 20/15 Q1011 BLU
6:37 p.m.
V
68 °F 6¼ mi+ 9.100 ft 340° 340° 6 kt METAR EHLW 251637Z AUTO 34006KT 310V050 9999 SCT019 BKN091 OVC097 20/15 Q1011 WHT
6:25 p.m.
V
70 °F 6¼ mi+ 32.000 ft 330° 330° 4 kt METAR EHLW 251625Z AUTO 33004KT 290V040 9999 FEW100 BKN320 21/15 Q1011 BLU
5:55 p.m.
M
68 °F 6¼ mi+ 2.700 ft 350° 350° 5 kt METAR EHLW 251555Z AUTO 35005KT 260V360 9999 OVC027 20/15 Q1012 BLU
5:25 p.m.
V
70 °F 6¼ mi+ 7.800 ft 340° 340° 6 kt METAR EHLW 251525Z AUTO 34006KT 270V030 9999 FEW025 SCT069 BKN078 21/15 Q1012 BLU
5:20 p.m.
V
70 °F 6¼ mi+ 7.700 ft 320° 320° 6 kt METAR EHLW 251520Z AUTO 32006KT 280V030 9999 FEW024 SCT029 BKN077 21/15 Q1012 BLU
5:08 p.m.
V
70 °F 6¼ mi+ 7.200 ft 300° 300° 5 kt METAR EHLW 251508Z AUTO 30005KT 260V020 9999 SCT024 SCT045 BKN072 21/15 Q1012 WHT
4:55 p.m.
V
70 °F 6¼ mi+ 9.000 ft 290° 290° 5 kt METAR EHLW 251455Z AUTO 29005KT 250V360 9999 SCT085 BKN090 BKN096 21/15 Q1012 BLU
4:25 p.m.
V
68 °F 6¼ mi+ 15.000 ft 270° 270° 7 kt METAR EHLW 251425Z AUTO 27007KT 230V340 9999 FEW037 SCT055 OVC150 20/14 Q1012 BLU
3:58 p.m.
V
68 °F 6¼ mi+ 15.000 ft 280° 280° 8 kt METAR EHLW 251358Z AUTO 28008KT 230V320 9999 FEW021 SCT046 BKN150 20/15 Q1012 BLU
3:55 p.m.
M
70 °F 6¼ mi+ 2.700 ft 280° 280° 8 kt METAR EHLW 251355Z AUTO 28008KT 240V310 9999 FEW019 SCT023 BKN027 21/15 Q1012 WHT
3:36 p.m.
V
68 °F 6¼ mi+ 3.100 ft 270° 270° 7 kt METAR EHLW 251336Z AUTO 27007KT 230V320 9999 SCT022 SCT028 BKN031 20/15 Q1012 WHT
3:25 p.m.
M
68 °F 6¼ mi+ 2.400 ft 290° 290° 7 kt METAR EHLW 251325Z AUTO 29007KT 230V320 9999 BKN024 OVC028 20/15 Q1012 WHT
3:12 p.m.
M
68 °F 6¼ mi+ 2.500 ft 260° 260° 7 kt METAR EHLW 251312Z AUTO 26007KT 210V320 9999 SCT021 BKN025 BKN028 20/15 Q1012 WHT
3:10 p.m.
M
70 °F 6¼ mi+ 2.500 ft 250° 250° 6 kt METAR EHLW 251310Z AUTO 25006KT 180V320 9999 FEW021 BKN025 BKN029 21/16 Q1011 BLU
2:56 p.m.
M
68 °F 6¼ mi+ 2.600 ft 230° 230° 6 kt METAR EHLW 251256Z AUTO 23006KT 170V330 9999 SCT023 BKN026 BKN075 20/15 Q1011 WHT
2:55 p.m.
M
70 °F 6¼ mi+ 2.500 ft 230° 230° 5 kt METAR EHLW 251255Z AUTO 23005KT 170V330 9999 FEW018 BKN025 BKN029 21/15 Q1011 BLU
2:44 p.m.
V
70 °F 6¼ mi+ 6.900 ft 250° 250° 6 kt METAR EHLW 251244Z AUTO 25006KT 180V320 9999 FEW017 SCT022 BKN069 21/16 Q1011 WHT
2:33 p.m.
V
68 °F 6¼ mi+ 6.800 ft 230° 230° 6 kt METAR EHLW 251233Z AUTO 23006KT 190V260 9999 FEW017 SCT021 OVC068 20/16 Q1011 WHT TEMPO FEW020CB BKN025
2:29 p.m.
V
68 °F 6¼ mi+ 6.600 ft 230° 230° 5 kt METAR EHLW 251229Z AUTO 23005KT 190V260 9999 OVC066 20/16 Q1011 BLU TEMPO FEW020CB BKN025
2:25 p.m.
V
68 °F 6¼ mi+ 6.600 ft 230° 230° 6 kt METAR EHLW 251225Z AUTO 23006KT 190V260 9999 SCT016 SCT019 OVC066 20/16 Q1011 WHT TEMPO FEW020CB BKN025
2:15 p.m.
M
68 °F 6¼ mi+ 1.400 ft 240° 240° 4 kt METAR EHLW 251215Z AUTO 24004KT 170V300 9999 BKN014 OVC016 20/16 Q1011 GRN TEMPO FEW020CB BKN025
2:11 p.m.
M
66 °F 6¼ mi+ 1.700 ft 250° 250° 4 kt METAR EHLW 251211Z AUTO 25004KT 200V300 9999 SCT014 BKN017 OVC020 19/16 Q1011 GRN TEMPO FEW020CB BKN025
2:03 p.m.
M
66 °F 6¼ mi+ 1.700 ft 260° 260° 5 kt METAR EHLW 251203Z AUTO 26005KT 200V280 9999 SCT014 BKN017 OVC020 19/16 Q1011 GRN TEMPO FEW020CB BKN025
1:55 p.m.
M
66 °F 6¼ mi+ 1.700 ft 260° 260° 6 kt METAR EHLW 251155Z AUTO 26006KT 180V290 9999 SCT013 BKN017 BKN021 19/15 Q1011 GRN TEMPO FEW020CB BKN025
1:44 p.m.
V
66 °F 6¼ mi+ 23.000 ft 260° 260° 7 kt METAR EHLW 251144Z AUTO 26007KT 190V320 9999 FEW013 SCT016 BKN230 19/16 Q1011 WHT TEMPO FEW020CB BKN025
1:35 p.m.
V
66 °F 6¼ mi+ 30.000 ft 270° 270° 9 kt METAR EHLW 251135Z AUTO 27009KT 220V320 9999 FEW010 BKN300 19/16 Q1011 BLU TEMPO FEW020CB BKN025
1:29 p.m.
V
66 °F 6¼ mi+ 4.600 ft 260° 260° 10 kt METAR EHLW 251129Z AUTO 26010KT 230V310 9999 FEW012 SCT014 BKN046 19/16 Q1011 GRN TEMPO FEW020CB BKN025
1:25 p.m.
V
66 °F 6¼ mi+ 4.500 ft 260° 260° 10 kt METAR EHLW 251125Z AUTO 26010KT 220V310 9999 FEW012 SCT040 BKN045 19/16 Q1011 BLU TEMPO FEW020CB BKN025
12:55 p.m.
V
66 °F 6¼ mi+ 3.800 ft 260° 260° 10 kt METAR EHLW 251055Z AUTO 26010KT 230V300 9999 FEW029 SCT033 BKN038 19/15 Q1011 BLU TEMPO FEW020CB BKN025
12:33 p.m.
M
66 °F 6¼ mi+ 2.800 ft 260° 260° 11 kt METAR EHLW 251033Z AUTO 26011KT 240V300 9999 SCT025 BKN028 OVC034 19/15 Q1011 BLU TEMPO FEW020CB BKN025
12:29 p.m.
M
66 °F 6¼ mi+ 2.800 ft 270° 270° 11 kt METAR EHLW 251029Z AUTO 27011KT 230V300 9999 SCT024 BKN028 BKN036 19/15 Q1011 WHT TEMPO FEW020CB BKN025
12:25 p.m.
V
66 °F 6¼ mi+ 4.200 ft 260° 260° 12 kt METAR EHLW 251025Z AUTO 26012KT 170V280 9999 FEW023 SCT026 BKN042 19/15 Q1011 BLU TEMPO FEW020CB BKN025
11:32 a.m.
V
70 °F 6¼ mi+ 5.600 ft 200° 200° 9 kt METAR EHLW 250932Z AUTO 20009KT 150V250 9999 FEW023 BKN056 BKN063 21/15 Q1010 BLU TEMPO FEW020CB BKN025
11:25 a.m.
M
70 °F 6¼ mi+ 2.300 ft 200° 200° 9 kt METAR EHLW 250925Z AUTO 20009KT 140V220 9999 BKN023 BKN030 BKN035 21/15 Q1010 WHT
10:55 a.m.
M
72 °F 6¼ mi+ 2.100 ft 220° 220° 10 kt METAR EHLW 250855Z AUTO 22010KT 150V230 9999 BKN021 BKN027 BKN031 22/16 Q1010 WHT
10:44 a.m.
V
70 °F 6¼ mi+ 8.100 ft 220° 220° 9 kt METAR EHLW 250844Z AUTO 22009KT 160V230 9999 SCT021 SCT028 BKN081 21/16 Q1010 WHT
10:39 a.m.
V
70 °F 6¼ mi+ 24.000 ft 210° 210° 9 kt METAR EHLW 250839Z AUTO 21009KT 170V240 9999 FEW020 SCT027 BKN240 21/15 Q1010 BLU
10:29 a.m.
V
70 °F 6¼ mi+ 22.000 ft 200° 200° 9 kt METAR EHLW 250829Z AUTO 20009KT 150V250 9999 SCT020 SCT023 BKN220 21/16 Q1010 WHT
10:25 a.m.
V
70 °F 6¼ mi+ 22.000 ft 210° 210° 8 kt METAR EHLW 250825Z AUTO 21008KT 150V250 9999 FEW020 BKN220 BKN330 21/16 Q1010 BLU
9:55 a.m.
V
70 °F 6¼ mi+ 20.000 ft 220° 220° 9 kt METAR EHLW 250755Z AUTO 22009KT 170V230 9999 OVC200/// 21/16 Q1010 BLU
9:25 a.m.
M
68 °F 6¼ mi+ 2.000 ft 220° 220° 10 kt METAR EHLW 250725Z AUTO 22010KT 170V240 9999 SCT015/// BKN020/// OVC140/// 20/17 Q1010 WHT
9:06 a.m.
V
68 °F 6¼ mi+ 21.000 ft 210° 210° 10 kt METAR EHLW 250706Z AUTO 21010KT 160V240 9999 SCT015/// OVC210/// 20/17 Q1009 WHT
8:55 a.m.
V
68 °F 6¼ mi+ 22.000 ft 210° 210° 9 kt METAR EHLW 250655Z AUTO 21009KT 170V230 9999 FEW016/// SCT150/// OVC220/// 20/16 Q1009 BLU
8:44 a.m.
V
68 °F 6¼ mi+ 15.000 ft 210° 210° 9 kt METAR EHLW 250644Z AUTO 21009KT 170V230 9999 FEW011 SCT016 OVC150 20/17 Q1009 WHT
8:34 a.m.
M
68 °F 6¼ mi+ 1.300 ft 210° 210° 10 kt METAR EHLW 250634Z AUTO 21010KT 160V230 9999 SCT010 BKN013 OVC150 20/17 Q1009 GRN
8:25 a.m.
V
68 °F 6¼ mi+ 15.000 ft 200° 200° 8 kt METAR EHLW 250625Z AUTO 20008KT 160V230 9999 FEW009 OVC150 20/17 Q1009 BLU
7:55 a.m.
V
66 °F 6¼ mi+ 16.000 ft 190° 190° 8 kt METAR EHLW 250555Z AUTO 19008KT 140V220 9999 BKN160 OVC300 19/17 Q1009 BLU
7:25 a.m.
V
64 °F 6¼ mi+ - 180° 180° 7 kt METAR EHLW 250525Z AUTO 18007KT 130V220 9999 FEW340 18/16 Q1009 BLU
6:55 a.m.
V
63 °F 6¼ mi+ 32.000 ft 190° 190° 6 kt METAR EHLW 250455Z AUTO 19006KT 150V210 9999 OVC320 17/16 Q1008 BLU
6:25 a.m.
V
63 °F 6¼ mi+ 34.000 ft 180° 180° 7 kt METAR EHLW 250425Z AUTO 18007KT 140V210 9999 OVC340 17/15 Q1008 BLU
5:55 a.m.
V
63 °F 6¼ mi+ - 170° 170° 8 kt METAR EHLW 250355Z AUTO 17008KT 140V210 9999 FEW310 17/15 Q1008 BLU
5:25 a.m.
V
63 °F 5⅝ mi 31.000 ft 160° 160° 7 kt METAR EHLW 250325Z AUTO 16007KT 130V190 9000 BR OVC310 17/15 Q1008 BLU
4:55 a.m.
V
63 °F 5⅝ mi 34.000 ft 160° 160° 6 kt METAR EHLW 250255Z AUTO 16006KT 130V190 9000 BR BKN340 17/15 Q1008 BLU
4:25 a.m.
V
63 °F 5 mi - 160° 160° 7 kt METAR EHLW 250225Z AUTO 16007KT 8000 BR NCD 17/15 Q1008 BLU
3:55 a.m.
V
63 °F 5 mi - 160° 160° 6 kt METAR EHLW 250155Z AUTO 16006KT 130V190 8000 BR NCD 17/15 Q1007 BLU
3:25 a.m.
V
63 °F 6¼ mi+ - 150° 150° 5 kt METAR EHLW 250125Z AUTO 15005KT 9999 NCD 17/15 Q1007 BLU
2:55 a.m.
V
63 °F 5⅝ mi - 150° 150° 4 kt METAR EHLW 250055Z AUTO 15004KT 9000 BR NCD 17/15 Q1007 BLU
2:25 a.m.
V
63 °F 5⅝ mi - 160° 160° 4 kt METAR EHLW 250025Z AUTO 16004KT 9000 BR NCD 17/15 Q1007 BLU RMK CB INFO NOT AVBL
1:55 a.m.
V
61 °F 6¼ mi+ - 150° 150° 2 kt METAR EHLW 242355Z AUTO 15002KT 9999 NCD 16/15 Q1007 BLU
1:25 a.m.
V
61 °F 6¼ mi+ - 120° 120° 3 kt METAR EHLW 242325Z AUTO 12003KT 070V130 9999 FEW320 16/15 Q1007 BLU
1:07 a.m.
V
59 °F 5⅝ mi 30.000 ft Var Var 2 kt METAR EHLW 242307Z AUTO VRB02KT 9000 BR OVC300 15/14 Q1007 BLU
12:55 a.m.
M
59 °F 4⅜ mi 22.000 ft 140° 140° 2 kt METAR EHLW 242255Z AUTO 14002KT 7000 BR BKN220 OVC310 15/15 Q1007 WHT
12:39 a.m.
V
57 °F 5 mi 22.000 ft 120° 120° 1 kt METAR EHLW 242239Z AUTO 12001KT 8000 BR FEW094 OVC220 14/14 Q1007 BLU
12:34 a.m.
M
59 °F 3¾ mi 22.000 ft 100° 100° 2 kt METAR EHLW 242234Z AUTO 10002KT 6000 BR SCT093 OVC220 15/14 Q1007 WHT
12:25 a.m.
V
61 °F 6¼ mi+ 22.000 ft Var Var 2 kt METAR EHLW 242225Z AUTO VRB02KT 9999 OVC220 16/15 Q1007 BLU

24 juni 2022

Tijd Code Weer Temp. Zicht Plafond Wind METAR/SPECI
11:55 p.m.
V
61 °F 6¼ mi+ 21.000 ft 170° 170° 3 kt METAR EHLW 242155Z AUTO 17003KT 9999 OVC210 16/15 Q1007 BLU
11:25 p.m.
V
63 °F 6¼ mi+ 22.000 ft 180° 180° 3 kt METAR EHLW 242125Z AUTO 18003KT 9999 OVC220 17/15 Q1007 BLU
10:55 p.m.
V
64 °F 6¼ mi+ 21.000 ft 210° 210° 3 kt METAR EHLW 242055Z AUTO 21003KT 9999 OVC210 18/15 Q1007 BLU
10:25 p.m.
V
64 °F 6¼ mi+ 23.000 ft 190° 190° 3 kt METAR EHLW 242025Z AUTO 19003KT 160V220 9999 OVC230 18/15 Q1007 BLU
9:55 p.m.
V
66 °F 6¼ mi+ 13.000 ft 120° 120° 3 kt METAR EHLW 241955Z AUTO 12003KT 9999 OVC130 19/15 Q1007 BLU
9:25 p.m.
V
66 °F 6¼ mi+ 21.000 ft Var Var 2 kt METAR EHLW 241925Z AUTO VRB02KT 9999 FEW150 OVC210 19/15 Q1006 BLU
Oudere gegevens

Installeer onze app

Gemakkelijke toegang tot al het luchtvaartweer op je mobiele telefoon en tablet.
Met veel functies die niet op de website beschikbaar zijn, zoals offline ondersteuning en een persoonlijke lijst van vliegvelden.

Met cookies volgen wij en derde partijen jouw internetgedrag binnen onze site. Als je verdergaat gaan we ervan uit dat je dit goedvindt. Meer info